MSC Barcelona — A8ZU9 — position and weather

sailwx.info

Track history (hours):
 
Tides and Currents Weather Stations Pressure Air Temp Water Temp Dewpoint Dewpoint Depression Visibility Wind Speed Wind Dir Waves Ship Positions

MSC Barcelona

Last reported at 2017-Dec-14 18:00 UTC. Time now 2017-Dec-17 17:38 UTC.
Position S 35°00' W 054°30'.

Length 270 m; draft 8.6 m.

Type: Ship (hazmat cat A). MMSI: 636092269.

Wind from 240 at 21 knots

Barometer 1009.2 mb
Air temperature 23.0 ° C
Visibility: greater than 27.0 NM
Dewpoint 16.8 ° C

Date/timePositionNaut miles runAvg speedWind from/ knotsBaromVisibWave heightAir tempDewpointWater temp
2017-Dec-14 18:00S 35°00' W 054°30'7312.1 240 / 211009.227.0 23.016.8
2017-Dec-14 12:00S 34°18' W 053°18'36915.4 240 / 181009.8 5.4 25.016.623.0
2017-Dec-13 12:00S 29°18' W 049°06'11519.1 040 / 201017.7 0.5 22.517.221.0
2017-Dec-13 06:00S 27°36' W 048°06'21017.5 030 / 171016.610.8 20.215.2
2017-Dec-12 18:01S 24°25' W 046°28'118.4
2017-Dec-12 17:57S 24°24' W 046°28'818.5
2017-Dec-12 17:30S 24°16' W 046°26'918.1
2017-Dec-12 17:00S 24°07' W 046°23'714.4
2017-Dec-12 16:30S 24°00' W 046°20'3 6.4
2017-Dec-12 15:58S 23°58' W 046°18'4 3.3
2017-Dec-12 14:46S 23°55' W 046°21'0 0.0
2017-Dec-12 13:22S 23°55' W 046°21'0 0.0
2017-Dec-12 10:34S 23°55' W 046°21'0 0.0
2017-Dec-12 10:28S 23°55' W 046°21'0 0.0
2017-Dec-12 09:52S 23°55' W 046°21'0 0.0
2017-Dec-12 09:28S 23°55' W 046°21'0 0.0
2017-Dec-12 08:55S 23°55' W 046°21'0 0.0
2017-Dec-12 08:28S 23°55' W 046°21'0 0.0
2017-Dec-12 07:58S 23°55' W 046°21'0 0.0
2017-Dec-12 07:28S 23°55' W 046°21'0 0.0
2017-Dec-12 06:55S 23°55' W 046°21'0 0.0
2017-Dec-12 06:28S 23°55' W 046°21'0 0.0
2017-Dec-12 05:43S 23°55' W 046°21'0 0.0
2017-Dec-12 05:22S 23°55' W 046°21'0 0.0
2017-Dec-12 04:55S 23°55' W 046°21'0 0.0
2017-Dec-12 04:25S 23°55' W 046°21'0 0.0
2017-Dec-12 03:58S 23°55' W 046°21'0 0.0
2017-Dec-12 02:40S 23°55' W 046°21'0 0.0
2017-Dec-12 02:19S 23°55' W 046°21'0 0.0
2017-Dec-12 01:58S 23°55' W 046°21'0 0.0
2017-Dec-12 01:28S 23°55' W 046°21'0 0.0
2017-Dec-12 00:40S 23°55' W 046°21'0 0.0
2017-Dec-12 00:25S 23°55' W 046°21'0 0.0
2017-Dec-11 23:55S 23°55' W 046°21'0 0.0
2017-Dec-11 23:28S 23°55' W 046°21'0 0.0
2017-Dec-11 22:10S 23°55' W 046°21'0 0.0
2017-Dec-11 16:10S 23°55' W 046°21'0 0.0
2017-Dec-11 15:49S 23°55' W 046°21'0 0.0
2017-Dec-11 15:22S 23°55' W 046°21'0 0.0
2017-Dec-11 14:52S 23°55' W 046°21'1 1.8
2017-Dec-11 14:30S 23°55' W 046°20'3 6.5
2017-Dec-11 14:00S 23°58' W 046°18'3 5.3
2017-Dec-11 13:31S 23°60' W 046°20'510.5
2017-Dec-11 13:00S 24°05' W 046°22'4 8.8
2017-Dec-11 12:30S 24°08' W 046°25'0 0.3
2017-Dec-11 12:00S 24°08' W 046°25'0 0.2
2017-Dec-11 11:30S 24°08' W 046°25'1 2.3
2017-Dec-11 11:01S 24°09' W 046°25'815.5
2017-Dec-11 10:31S 24°15' W 046°19'918.1
2017-Dec-11 10:01S 24°15' W 046°09'918.3
2017-Dec-11 09:30S 24°15' W 045°59'918.5
2017-Dec-11 09:01S 24°15' W 045°49'918.6
2017-Dec-11 08:31S 24°16' W 045°39'918.9
2017-Dec-11 08:01S 24°14' W 045°29'919.0
2017-Dec-11 07:31S 24°11' W 045°19'918.9
2017-Dec-11 07:01S 24°09' W 045°09'918.7
2017-Dec-11 06:31S 24°06' W 044°59'1018.8
2017-Dec-11 06:00S 24°04' W 044°49'919.0
2017-Dec-11 05:31S 24°01' W 044°39'1019.0
2017-Dec-11 05:00S 23°59' W 044°29'918.9
2017-Dec-11 04:31S 23°56' W 044°19'30518.5
2017-Dec-10 12:00S 21°18' W 039°36'42417.7 230 / 121010.510.8 25.522.028.0
2017-Dec-09 12:00S 14°48' W 036°42'43918.3 020 / 181010.6 5.4 28.522.228.0
2017-Dec-08 12:00S 07°48' W 034°30'71617.0 050 / 161013.210.8 30.0 29.0
2017-Dec-06 18:00N 01°48' W 041°36'61317.0 100 / 211008.510.8 29.023.230.0
2017-Dec-05 06:00N 07°48' W 049°54'   110 / 181010.410.8 27.021.7
Track history (hours):
 
Tides and Currents Weather Stations Pressure Air Temp Water Temp Dewpoint Dewpoint Depression Visibility Wind Speed Wind Dir Waves Ship Positions

MSC Barcelona

Last reported at 2017-Dec-14 18:00 UTC. Time now 2017-Dec-17 17:38 UTC.
Position S 35°00' W 054°30'.

Length 270 m; draft 8.6 m.

Type: Ship (hazmat cat A). MMSI: 636092269.

Wind from 240 at 21 knots

Barometer 1009.2 mb
Air temperature 23.0 ° C
Visibility: greater than 27.0 NM
Dewpoint 16.8 ° C

Date/timePositionNaut miles runAvg speedWind from/ knotsBaromVisibWave heightAir tempDewpointWater temp
2017-Dec-14 18:00S 35°00' W 054°30'7312.1 240 / 211009.227.0 23.016.8
2017-Dec-14 12:00S 34°18' W 053°18'36915.4 240 / 181009.8 5.4 25.016.623.0
2017-Dec-13 12:00S 29°18' W 049°06'11519.1 040 / 201017.7 0.5 22.517.221.0
2017-Dec-13 06:00S 27°36' W 048°06'21017.5 030 / 171016.610.8 20.215.2
2017-Dec-12 18:01S 24°25' W 046°28'118.4
2017-Dec-12 17:57S 24°24' W 046°28'818.5
2017-Dec-12 17:30S 24°16' W 046°26'918.1
2017-Dec-12 17:00S 24°07' W 046°23'714.4
2017-Dec-12 16:30S 24°00' W 046°20'3 6.4
2017-Dec-12 15:58S 23°58' W 046°18'4 3.3
2017-Dec-12 14:46S 23°55' W 046°21'0 0.0
2017-Dec-12 13:22S 23°55' W 046°21'0 0.0
2017-Dec-12 10:34S 23°55' W 046°21'0 0.0
2017-Dec-12 10:28S 23°55' W 046°21'0 0.0
2017-Dec-12 09:52S 23°55' W 046°21'0 0.0
2017-Dec-12 09:28S 23°55' W 046°21'0 0.0
2017-Dec-12 08:55S 23°55' W 046°21'0 0.0
2017-Dec-12 08:28S 23°55' W 046°21'0 0.0
2017-Dec-12 07:58S 23°55' W 046°21'0 0.0
2017-Dec-12 07:28S 23°55' W 046°21'0 0.0
2017-Dec-12 06:55S 23°55' W 046°21'0 0.0
2017-Dec-12 06:28S 23°55' W 046°21'0 0.0
2017-Dec-12 05:43S 23°55' W 046°21'0 0.0
2017-Dec-12 05:22S 23°55' W 046°21'0 0.0
2017-Dec-12 04:55S 23°55' W 046°21'0 0.0
2017-Dec-12 04:25S 23°55' W 046°21'0 0.0
2017-Dec-12 03:58S 23°55' W 046°21'0 0.0
2017-Dec-12 02:40S 23°55' W 046°21'0 0.0
2017-Dec-12 02:19S 23°55' W 046°21'0 0.0
2017-Dec-12 01:58S 23°55' W 046°21'0 0.0
2017-Dec-12 01:28S 23°55' W 046°21'0 0.0
2017-Dec-12 00:40S 23°55' W 046°21'0 0.0
2017-Dec-12 00:25S 23°55' W 046°21'0 0.0
2017-Dec-11 23:55S 23°55' W 046°21'0 0.0
2017-Dec-11 23:28S 23°55' W 046°21'0 0.0
2017-Dec-11 22:10S 23°55' W 046°21'0 0.0
2017-Dec-11 16:10S 23°55' W 046°21'0 0.0
2017-Dec-11 15:49S 23°55' W 046°21'0 0.0
2017-Dec-11 15:22S 23°55' W 046°21'0 0.0
2017-Dec-11 14:52S 23°55' W 046°21'1 1.8
2017-Dec-11 14:30S 23°55' W 046°20'3 6.5
2017-Dec-11 14:00S 23°58' W 046°18'3 5.3
2017-Dec-11 13:31S 23°60' W 046°20'510.5
2017-Dec-11 13:00S 24°05' W 046°22'4 8.8
2017-Dec-11 12:30S 24°08' W 046°25'0 0.3
2017-Dec-11 12:00S 24°08' W 046°25'0 0.2
2017-Dec-11 11:30S 24°08' W 046°25'1 2.3
2017-Dec-11 11:01S 24°09' W 046°25'815.5
2017-Dec-11 10:31S 24°15' W 046°19'918.1
2017-Dec-11 10:01S 24°15' W 046°09'918.3
2017-Dec-11 09:30S 24°15' W 045°59'918.5
2017-Dec-11 09:01S 24°15' W 045°49'918.6
2017-Dec-11 08:31S 24°16' W 045°39'918.9
2017-Dec-11 08:01S 24°14' W 045°29'919.0
2017-Dec-11 07:31S 24°11' W 045°19'918.9
2017-Dec-11 07:01S 24°09' W 045°09'918.7
2017-Dec-11 06:31S 24°06' W 044°59'1018.8
2017-Dec-11 06:00S 24°04' W 044°49'919.0
2017-Dec-11 05:31S 24°01' W 044°39'1019.0
2017-Dec-11 05:00S 23°59' W 044°29'918.9
2017-Dec-11 04:31S 23°56' W 044°19'30518.5
2017-Dec-10 12:00S 21°18' W 039°36'42417.7 230 / 121010.510.8 25.522.028.0
2017-Dec-09 12:00S 14°48' W 036°42'43918.3 020 / 181010.6 5.4 28.522.228.0
2017-Dec-08 12:00S 07°48' W 034°30'71617.0 050 / 161013.210.8 30.0 29.0
2017-Dec-06 18:00N 01°48' W 041°36'61317.0 100 / 211008.510.8 29.023.230.0
2017-Dec-05 06:00N 07°48' W 049°54'   110 / 181010.410.8 27.021.7

Dump ship's entire track history